sensor_id;sensor_type;location;lat;lon;timestamp;P1;durP1;ratioP1;P2;durP2;ratioP2
20170;SDS011;10245;51.344;6.620;2023-06-26T00:01:51;11.50;;;8.00;;
20170;SDS011;10245;51.344;6.620;2023-06-26T00:04:15;8.98;;;7.40;;
20170;SDS011;10245;51.344;6.620;2023-06-26T00:06:39;9.82;;;8.43;;
20170;SDS011;10245;51.344;6.620;2023-06-26T00:09:03;8.57;;;7.30;;
20170;SDS011;10245;51.344;6.620;2023-06-26T00:11:26;8.98;;;7.95;;
20170;SDS011;10245;51.344;6.620;2023-06-26T00:13:52;8.38;;;7.57;;
20170;SDS011;10245;51.344;6.620;2023-06-26T00:16:16;8.63;;;7.82;;
20170;SDS011;10245;51.344;6.620;2023-06-26T00:18:39;8.43;;;7.63;;
20170;SDS011;10245;51.344;6.620;2023-06-26T00:21:02;11.20;;;8.52;;
20170;SDS011;10245;51.344;6.620;2023-06-26T00:23:27;8.02;;;7.30;;
20170;SDS011;10245;51.344;6.620;2023-06-26T00:25:52;9.20;;;7.80;;
20170;SDS011;10245;51.344;6.620;2023-06-26T00:28:15;9.02;;;8.07;;
20170;SDS011;10245;51.344;6.620;2023-06-26T00:30:38;8.43;;;7.63;;
20170;SDS011;10245;51.344;6.620;2023-06-26T00:33:02;9.57;;;8.57;;
20170;SDS011;10245;51.344;6.620;2023-06-26T00:35:25;9.20;;;8.27;;
20170;SDS011;10245;51.344;6.620;2023-06-26T00:37:49;9.82;;;8.02;;
20170;SDS011;10245;51.344;6.620;2023-06-26T00:40:13;8.85;;;7.90;;
20170;SDS011;10245;51.344;6.620;2023-06-26T00:42:37;10.30;;;8.32;;
20170;SDS011;10245;51.344;6.620;2023-06-26T00:45:00;9.13;;;7.63;;
20170;SDS011;10245;51.344;6.620;2023-06-26T00:47:24;8.68;;;7.70;;
20170;SDS011;10245;51.344;6.620;2023-06-26T00:49:47;8.98;;;7.65;;
20170;SDS011;10245;51.344;6.620;2023-06-26T00:52:11;9.60;;;7.80;;
20170;SDS011;10245;51.344;6.620;2023-06-26T00:54:34;10.55;;;8.10;;
20170;SDS011;10245;51.344;6.620;2023-06-26T00:56:59;11.27;;;8.88;;
20170;SDS011;10245;51.344;6.620;2023-06-26T00:59:22;8.75;;;7.85;;
20170;SDS011;10245;51.344;6.620;2023-06-26T01:01:45;12.60;;;8.25;;
20170;SDS011;10245;51.344;6.620;2023-06-26T01:04:09;9.27;;;7.95;;
20170;SDS011;10245;51.344;6.620;2023-06-26T01:06:39;9.00;;;8.10;;
20170;SDS011;10245;51.344;6.620;2023-06-26T01:09:02;11.75;;;8.43;;
20170;SDS011;10245;51.344;6.620;2023-06-26T01:11:26;11.43;;;8.07;;
20170;SDS011;10245;51.344;6.620;2023-06-26T01:13:50;9.73;;;8.45;;
20170;SDS011;10245;51.344;6.620;2023-06-26T01:16:15;10.27;;;8.38;;
20170;SDS011;10245;51.344;6.620;2023-06-26T01:18:41;11.00;;;8.60;;
20170;SDS011;10245;51.344;6.620;2023-06-26T01:21:07;10.05;;;8.55;;
20170;SDS011;10245;51.344;6.620;2023-06-26T01:23:31;13.45;;;8.57;;
20170;SDS011;10245;51.344;6.620;2023-06-26T01:28:50;11.35;;;7.85;;
20170;SDS011;10245;51.344;6.620;2023-06-26T01:31:15;9.80;;;8.75;;
20170;SDS011;10245;51.344;6.620;2023-06-26T01:33:40;9.65;;;8.65;;
20170;SDS011;10245;51.344;6.620;2023-06-26T01:36:04;9.73;;;8.68;;
20170;SDS011;10245;51.344;6.620;2023-06-26T01:38:29;10.27;;;9.27;;
20170;SDS011;10245;51.344;6.620;2023-06-26T01:40:53;11.30;;;7.90;;
20170;SDS011;10245;51.344;6.620;2023-06-26T01:43:20;11.05;;;8.70;;
20170;SDS011;10245;51.344;6.620;2023-06-26T01:45:52;12.10;;;8.60;;
20170;SDS011;10245;51.344;6.620;2023-06-26T01:48:22;12.45;;;10.25;;
20170;SDS011;10245;51.344;6.620;2023-06-26T01:50:49;9.70;;;8.52;;
20170;SDS011;10245;51.344;6.620;2023-06-26T01:53:15;11.95;;;9.10;;
20170;SDS011;10245;51.344;6.620;2023-06-26T01:55:43;11.35;;;9.23;;
20170;SDS011;10245;51.344;6.620;2023-06-26T01:58:13;10.00;;;9.00;;
20170;SDS011;10245;51.344;6.620;2023-06-26T02:00:39;11.05;;;8.43;;
20170;SDS011;10245;51.344;6.620;2023-06-26T02:03:03;11.02;;;8.73;;
20170;SDS011;10245;51.344;6.620;2023-06-26T02:05:28;12.52;;;9.45;;
20170;SDS011;10245;51.344;6.620;2023-06-26T02:07:53;10.05;;;8.77;;
20170;SDS011;10245;51.344;6.620;2023-06-26T02:10:16;9.32;;;8.23;;
20170;SDS011;10245;51.344;6.620;2023-06-26T02:12:40;10.65;;;8.80;;
20170;SDS011;10245;51.344;6.620;2023-06-26T02:15:06;11.48;;;9.27;;
20170;SDS011;10245;51.344;6.620;2023-06-26T02:17:34;10.52;;;8.70;;
20170;SDS011;10245;51.344;6.620;2023-06-26T02:19:58;10.98;;;8.35;;
20170;SDS011;10245;51.344;6.620;2023-06-26T02:22:21;10.52;;;8.02;;
20170;SDS011;10245;51.344;6.620;2023-06-26T02:24:45;9.55;;;8.20;;
20170;SDS011;10245;51.344;6.620;2023-06-26T02:27:08;9.50;;;8.52;;
20170;SDS011;10245;51.344;6.620;2023-06-26T02:29:31;10.65;;;9.20;;
20170;SDS011;10245;51.344;6.620;2023-06-26T02:31:54;10.55;;;8.60;;
20170;SDS011;10245;51.344;6.620;2023-06-26T02:34:19;9.60;;;8.48;;
20170;SDS011;10245;51.344;6.620;2023-06-26T02:36:42;9.70;;;8.70;;
20170;SDS011;10245;51.344;6.620;2023-06-26T02:39:06;12.20;;;8.27;;
20170;SDS011;10245;51.344;6.620;2023-06-26T02:41:29;11.23;;;8.50;;
20170;SDS011;10245;51.344;6.620;2023-06-26T02:43:52;10.05;;;8.93;;
20170;SDS011;10245;51.344;6.620;2023-06-26T02:46:16;10.55;;;9.30;;
20170;SDS011;10245;51.344;6.620;2023-06-26T02:48:39;11.15;;;8.88;;
20170;SDS011;10245;51.344;6.620;2023-06-26T02:51:04;10.20;;;9.10;;
20170;SDS011;10245;51.344;6.620;2023-06-26T02:53:28;10.55;;;8.73;;
20170;SDS011;10245;51.344;6.620;2023-06-26T02:55:51;11.38;;;8.32;;
20170;SDS011;10245;51.344;6.620;2023-06-26T02:58:14;10.23;;;8.23;;
20170;SDS011;10245;51.344;6.620;2023-06-26T03:00:38;9.15;;;8.20;;
20170;SDS011;10245;51.344;6.620;2023-06-26T03:03:07;9.30;;;8.30;;
20170;SDS011;10245;51.344;6.620;2023-06-26T03:05:30;15.43;;;8.82;;
20170;SDS011;10245;51.344;6.620;2023-06-26T03:07:56;11.30;;;8.82;;
20170;SDS011;10245;51.344;6.620;2023-06-26T03:10:19;12.23;;;8.57;;
20170;SDS011;10245;51.344;6.620;2023-06-26T03:12:42;9.93;;;8.05;;
20170;SDS011;10245;51.344;6.620;2023-06-26T03:15:06;13.63;;;8.02;;
20170;SDS011;10245;51.344;6.620;2023-06-26T03:17:30;10.00;;;8.07;;
20170;SDS011;10245;51.344;6.620;2023-06-26T03:19:58;9.57;;;8.15;;
20170;SDS011;10245;51.344;6.620;2023-06-26T03:22:33;9.80;;;7.93;;
20170;SDS011;10245;51.344;6.620;2023-06-26T03:24:58;9.05;;;7.57;;
20170;SDS011;10245;51.344;6.620;2023-06-26T03:27:21;9.82;;;8.82;;
20170;SDS011;10245;51.344;6.620;2023-06-26T03:29:44;9.27;;;8.05;;
20170;SDS011;10245;51.344;6.620;2023-06-26T03:32:09;8.68;;;7.78;;
20170;SDS011;10245;51.344;6.620;2023-06-26T03:34:33;9.40;;;8.23;;
20170;SDS011;10245;51.344;6.620;2023-06-26T03:36:56;9.95;;;7.90;;
20170;SDS011;10245;51.344;6.620;2023-06-26T03:39:20;12.55;;;8.48;;
20170;SDS011;10245;51.344;6.620;2023-06-26T03:41:44;9.95;;;8.10;;
20170;SDS011;10245;51.344;6.620;2023-06-26T03:44:07;10.60;;;8.35;;
20170;SDS011;10245;51.344;6.620;2023-06-26T03:46:38;10.68;;;8.60;;
20170;SDS011;10245;51.344;6.620;2023-06-26T03:49:01;13.43;;;8.98;;
20170;SDS011;10245;51.344;6.620;2023-06-26T03:51:25;10.10;;;8.75;;
20170;SDS011;10245;51.344;6.620;2023-06-26T03:53:48;9.85;;;8.52;;
20170;SDS011;10245;51.344;6.620;2023-06-26T03:56:12;9.55;;;8.27;;
20170;SDS011;10245;51.344;6.620;2023-06-26T03:58:38;10.40;;;8.52;;
20170;SDS011;10245;51.344;6.620;2023-06-26T04:01:01;10.77;;;8.32;;
20170;SDS011;10245;51.344;6.620;2023-06-26T04:03:24;14.82;;;8.43;;
20170;SDS011;10245;51.344;6.620;2023-06-26T04:05:48;11.52;;;8.35;;
20170;SDS011;10245;51.344;6.620;2023-06-26T04:08:11;9.07;;;8.18;;
20170;SDS011;10245;51.344;6.620;2023-06-26T04:10:35;14.02;;;9.70;;
20170;SDS011;10245;51.344;6.620;2023-06-26T04:12:59;10.40;;;8.50;;
20170;SDS011;10245;51.344;6.620;2023-06-26T04:15:24;13.35;;;8.85;;
20170;SDS011;10245;51.344;6.620;2023-06-26T04:17:47;10.68;;;8.68;;
20170;SDS011;10245;51.344;6.620;2023-06-26T04:20:10;11.18;;;8.07;;
20170;SDS011;10245;51.344;6.620;2023-06-26T04:22:34;10.52;;;8.02;;
20170;SDS011;10245;51.344;6.620;2023-06-26T04:24:57;10.55;;;7.35;;
20170;SDS011;10245;51.344;6.620;2023-06-26T04:27:20;9.93;;;7.63;;
20170;SDS011;10245;51.344;6.620;2023-06-26T04:29:43;9.68;;;7.05;;
20170;SDS011;10245;51.344;6.620;2023-06-26T04:32:08;8.18;;;7.18;;
20170;SDS011;10245;51.344;6.620;2023-06-26T04:34:31;9.13;;;7.38;;
20170;SDS011;10245;51.344;6.620;2023-06-26T04:36:56;10.93;;;7.53;;
20170;SDS011;10245;51.344;6.620;2023-06-26T04:39:19;8.43;;;6.93;;
20170;SDS011;10245;51.344;6.620;2023-06-26T04:41:43;15.18;;;7.40;;
20170;SDS011;10245;51.344;6.620;2023-06-26T04:44:07;13.32;;;7.18;;
20170;SDS011;10245;51.344;6.620;2023-06-26T04:46:30;9.27;;;6.85;;
20170;SDS011;10245;51.344;6.620;2023-06-26T04:48:54;9.05;;;6.55;;
20170;SDS011;10245;51.344;6.620;2023-06-26T04:51:19;9.60;;;6.90;;
20170;SDS011;10245;51.344;6.620;2023-06-26T04:53:43;8.20;;;6.53;;
20170;SDS011;10245;51.344;6.620;2023-06-26T04:56:06;10.00;;;6.35;;
20170;SDS011;10245;51.344;6.620;2023-06-26T04:58:30;8.13;;;6.20;;
20170;SDS011;10245;51.344;6.620;2023-06-26T05:00:53;9.15;;;5.80;;
20170;SDS011;10245;51.344;6.620;2023-06-26T05:03:17;6.90;;;5.65;;
20170;SDS011;10245;51.344;6.620;2023-06-26T05:05:42;9.55;;;5.85;;
20170;SDS011;10245;51.344;6.620;2023-06-26T05:08:15;8.07;;;6.20;;
20170;SDS011;10245;51.344;6.620;2023-06-26T05:10:40;7.95;;;5.60;;
20170;SDS011;10245;51.344;6.620;2023-06-26T05:13:03;8.68;;;5.97;;
20170;SDS011;10245;51.344;6.620;2023-06-26T05:15:26;8.45;;;6.18;;
20170;SDS011;10245;51.344;6.620;2023-06-26T05:17:50;10.13;;;6.45;;
20170;SDS011;10245;51.344;6.620;2023-06-26T05:20:13;8.45;;;5.93;;
20170;SDS011;10245;51.344;6.620;2023-06-26T05:22:37;10.88;;;6.60;;
20170;SDS011;10245;51.344;6.620;2023-06-26T05:25:02;9.52;;;6.10;;
20170;SDS011;10245;51.344;6.620;2023-06-26T05:27:28;8.75;;;6.47;;
20170;SDS011;10245;51.344;6.620;2023-06-26T05:29:52;9.88;;;5.78;;
20170;SDS011;10245;51.344;6.620;2023-06-26T05:32:16;9.50;;;5.90;;
20170;SDS011;10245;51.344;6.620;2023-06-26T05:34:40;9.68;;;5.70;;
20170;SDS011;10245;51.344;6.620;2023-06-26T05:37:04;11.32;;;5.97;;
20170;SDS011;10245;51.344;6.620;2023-06-26T05:39:31;10.05;;;6.50;;
20170;SDS011;10245;51.344;6.620;2023-06-26T05:41:55;8.55;;;5.53;;
20170;SDS011;10245;51.344;6.620;2023-06-26T05:44:19;8.18;;;6.03;;
20170;SDS011;10245;51.344;6.620;2023-06-26T05:46:42;7.53;;;6.03;;
20170;SDS011;10245;51.344;6.620;2023-06-26T05:49:05;9.38;;;5.45;;
20170;SDS011;10245;51.344;6.620;2023-06-26T05:51:29;12.52;;;6.18;;
20170;SDS011;10245;51.344;6.620;2023-06-26T05:53:53;9.05;;;5.80;;
20170;SDS011;10245;51.344;6.620;2023-06-26T05:56:18;10.55;;;5.75;;
20170;SDS011;10245;51.344;6.620;2023-06-26T05:58:42;8.80;;;6.25;;
20170;SDS011;10245;51.344;6.620;2023-06-26T06:01:06;12.52;;;6.85;;
20170;SDS011;10245;51.344;6.620;2023-06-26T06:03:30;10.27;;;5.90;;
20170;SDS011;10245;51.344;6.620;2023-06-26T06:05:53;10.35;;;6.47;;
20170;SDS011;10245;51.344;6.620;2023-06-26T06:08:16;12.93;;;6.25;;
20170;SDS011;10245;51.344;6.620;2023-06-26T06:10:40;8.88;;;6.40;;
20170;SDS011;10245;51.344;6.620;2023-06-26T06:13:05;8.95;;;5.97;;
20170;SDS011;10245;51.344;6.620;2023-06-26T06:15:28;10.38;;;6.38;;
20170;SDS011;10245;51.344;6.620;2023-06-26T06:17:51;11.80;;;6.18;;
20170;SDS011;10245;51.344;6.620;2023-06-26T06:20:15;15.40;;;6.35;;
20170;SDS011;10245;51.344;6.620;2023-06-26T06:22:40;10.68;;;5.85;;
20170;SDS011;10245;51.344;6.620;2023-06-26T06:25:04;12.43;;;6.78;;
20170;SDS011;10245;51.344;6.620;2023-06-26T06:27:28;10.73;;;6.63;;
20170;SDS011;10245;51.344;6.620;2023-06-26T06:29:53;10.15;;;6.70;;
20170;SDS011;10245;51.344;6.620;2023-06-26T06:32:16;14.07;;;6.85;;
20170;SDS011;10245;51.344;6.620;2023-06-26T06:34:40;13.23;;;6.38;;
20170;SDS011;10245;51.344;6.620;2023-06-26T06:37:04;14.13;;;6.28;;
20170;SDS011;10245;51.344;6.620;2023-06-26T06:39:27;11.45;;;6.10;;
20170;SDS011;10245;51.344;6.620;2023-06-26T06:41:50;15.50;;;6.20;;
20170;SDS011;10245;51.344;6.620;2023-06-26T06:44:13;14.88;;;6.45;;
20170;SDS011;10245;51.344;6.620;2023-06-26T06:46:38;17.23;;;6.43;;
20170;SDS011;10245;51.344;6.620;2023-06-26T06:49:01;12.20;;;6.72;;
20170;SDS011;10245;51.344;6.620;2023-06-26T06:51:25;11.38;;;6.55;;
20170;SDS011;10245;51.344;6.620;2023-06-26T06:53:49;11.68;;;6.72;;
20170;SDS011;10245;51.344;6.620;2023-06-26T06:56:12;11.20;;;6.30;;
20170;SDS011;10245;51.344;6.620;2023-06-26T06:58:35;13.80;;;6.68;;
20170;SDS011;10245;51.344;6.620;2023-06-26T07:00:58;11.40;;;5.82;;
20170;SDS011;10245;51.344;6.620;2023-06-26T07:03:25;12.18;;;6.35;;
20170;SDS011;10245;51.344;6.620;2023-06-26T07:05:48;12.02;;;6.57;;
20170;SDS011;10245;51.344;6.620;2023-06-26T07:08:12;10.48;;;7.13;;
20170;SDS011;10245;51.344;6.620;2023-06-26T07:10:35;11.45;;;6.47;;
20170;SDS011;10245;51.344;6.620;2023-06-26T07:13:00;10.23;;;6.32;;
20170;SDS011;10245;51.344;6.620;2023-06-26T07:15:23;10.18;;;6.22;;
20170;SDS011;10245;51.344;6.620;2023-06-26T07:17:48;11.57;;;6.70;;
20170;SDS011;10245;51.344;6.620;2023-06-26T07:20:13;13.50;;;6.85;;
20170;SDS011;10245;51.344;6.620;2023-06-26T07:22:37;14.50;;;6.63;;
20170;SDS011;10245;51.344;6.620;2023-06-26T07:25:00;13.32;;;6.72;;
20170;SDS011;10245;51.344;6.620;2023-06-26T07:27:25;13.40;;;6.75;;
20170;SDS011;10245;51.344;6.620;2023-06-26T07:29:48;13.13;;;6.28;;
20170;SDS011;10245;51.344;6.620;2023-06-26T07:32:11;14.27;;;7.00;;
20170;SDS011;10245;51.344;6.620;2023-06-26T07:34:36;14.45;;;6.63;;
20170;SDS011;10245;51.344;6.620;2023-06-26T07:37:00;13.55;;;6.30;;
20170;SDS011;10245;51.344;6.620;2023-06-26T07:39:24;13.15;;;6.38;;
20170;SDS011;10245;51.344;6.620;2023-06-26T07:41:47;15.70;;;6.15;;
20170;SDS011;10245;51.344;6.620;2023-06-26T07:44:10;9.10;;;5.93;;
20170;SDS011;10245;51.344;6.620;2023-06-26T07:46:33;16.63;;;6.97;;
20170;SDS011;10245;51.344;6.620;2023-06-26T07:48:57;14.77;;;6.05;;
20170;SDS011;10245;51.344;6.620;2023-06-26T07:51:20;13.35;;;6.18;;
20170;SDS011;10245;51.344;6.620;2023-06-26T07:53:45;14.55;;;5.85;;
20170;SDS011;10245;51.344;6.620;2023-06-26T07:56:08;12.10;;;5.97;;
20170;SDS011;10245;51.344;6.620;2023-06-26T07:58:31;14.70;;;6.63;;
20170;SDS011;10245;51.344;6.620;2023-06-26T08:00:54;12.13;;;6.30;;
20170;SDS011;10245;51.344;6.620;2023-06-26T08:03:18;13.40;;;6.10;;
20170;SDS011;10245;51.344;6.620;2023-06-26T08:05:55;16.42;;;6.45;;
20170;SDS011;10245;51.344;6.620;2023-06-26T08:08:18;14.65;;;6.28;;
20170;SDS011;10245;51.344;6.620;2023-06-26T08:10:43;13.80;;;5.47;;
20170;SDS011;10245;51.344;6.620;2023-06-26T08:13:06;11.85;;;5.35;;
20170;SDS011;10245;51.344;6.620;2023-06-26T08:15:29;11.77;;;5.38;;
20170;SDS011;10245;51.344;6.620;2023-06-26T08:17:52;12.80;;;5.47;;
20170;SDS011;10245;51.344;6.620;2023-06-26T08:20:16;15.70;;;4.95;;
20170;SDS011;10245;51.344;6.620;2023-06-26T08:22:40;10.50;;;4.40;;
20170;SDS011;10245;51.344;6.620;2023-06-26T08:25:04;13.98;;;5.20;;
20170;SDS011;10245;51.344;6.620;2023-06-26T08:27:29;14.02;;;5.50;;
20170;SDS011;10245;51.344;6.620;2023-06-26T08:29:53;11.15;;;4.70;;
20170;SDS011;10245;51.344;6.620;2023-06-26T08:32:16;10.38;;;4.22;;
20170;SDS011;10245;51.344;6.620;2023-06-26T08:34:39;15.32;;;5.32;;
20170;SDS011;10245;51.344;6.620;2023-06-26T08:37:02;13.32;;;5.45;;
20170;SDS011;10245;51.344;6.620;2023-06-26T08:39:27;9.20;;;4.80;;
20170;SDS011;10245;51.344;6.620;2023-06-26T08:41:50;13.57;;;4.85;;
20170;SDS011;10245;51.344;6.620;2023-06-26T08:44:16;12.98;;;4.60;;
20170;SDS011;10245;51.344;6.620;2023-06-26T08:46:40;26.23;;;5.47;;
20170;SDS011;10245;51.344;6.620;2023-06-26T08:49:04;17.33;;;5.28;;
20170;SDS011;10245;51.344;6.620;2023-06-26T08:51:36;10.15;;;4.40;;
20170;SDS011;10245;51.344;6.620;2023-06-26T08:54:01;11.77;;;4.82;;
20170;SDS011;10245;51.344;6.620;2023-06-26T08:56:31;13.15;;;4.68;;
20170;SDS011;10245;51.344;6.620;2023-06-26T08:58:58;9.65;;;4.18;;
20170;SDS011;10245;51.344;6.620;2023-06-26T09:01:23;11.00;;;4.25;;
20170;SDS011;10245;51.344;6.620;2023-06-26T09:03:47;14.93;;;4.97;;
20170;SDS011;10245;51.344;6.620;2023-06-26T09:06:10;14.85;;;4.75;;
20170;SDS011;10245;51.344;6.620;2023-06-26T09:08:34;11.98;;;4.32;;
20170;SDS011;10245;51.344;6.620;2023-06-26T09:10:57;12.38;;;4.95;;
20170;SDS011;10245;51.344;6.620;2023-06-26T09:13:20;13.82;;;4.90;;
20170;SDS011;10245;51.344;6.620;2023-06-26T09:15:52;10.80;;;4.68;;
20170;SDS011;10245;51.344;6.620;2023-06-26T09:18:20;9.88;;;4.55;;
20170;SDS011;10245;51.344;6.620;2023-06-26T09:20:44;8.70;;;4.20;;
20170;SDS011;10245;51.344;6.620;2023-06-26T09:23:07;9.43;;;4.40;;
20170;SDS011;10245;51.344;6.620;2023-06-26T09:25:31;11.02;;;4.53;;
20170;SDS011;10245;51.344;6.620;2023-06-26T09:27:55;12.15;;;4.78;;
20170;SDS011;10245;51.344;6.620;2023-06-26T09:30:19;9.30;;;4.15;;
20170;SDS011;10245;51.344;6.620;2023-06-26T09:32:42;10.88;;;4.30;;
20170;SDS011;10245;51.344;6.620;2023-06-26T09:35:07;12.60;;;4.50;;
20170;SDS011;10245;51.344;6.620;2023-06-26T09:37:30;9.75;;;4.70;;
20170;SDS011;10245;51.344;6.620;2023-06-26T09:39:54;9.00;;;4.40;;
20170;SDS011;10245;51.344;6.620;2023-06-26T09:42:18;6.90;;;3.53;;
20170;SDS011;10245;51.344;6.620;2023-06-26T09:44:43;7.15;;;4.18;;
20170;SDS011;10245;51.344;6.620;2023-06-26T09:47:11;14.25;;;4.55;;
20170;SDS011;10245;51.344;6.620;2023-06-26T09:49:34;10.80;;;3.92;;
20170;SDS011;10245;51.344;6.620;2023-06-26T09:51:59;8.70;;;4.50;;
20170;SDS011;10245;51.344;6.620;2023-06-26T09:54:24;9.13;;;4.10;;
20170;SDS011;10245;51.344;6.620;2023-06-26T09:56:50;11.07;;;3.75;;
20170;SDS011;10245;51.344;6.620;2023-06-26T09:59:13;13.27;;;3.85;;
20170;SDS011;10245;51.344;6.620;2023-06-26T10:01:39;6.25;;;3.47;;
20170;SDS011;10245;51.344;6.620;2023-06-26T10:04:04;9.30;;;3.80;;
20170;SDS011;10245;51.344;6.620;2023-06-26T10:06:30;6.90;;;3.47;;
20170;SDS011;10245;51.344;6.620;2023-06-26T10:08:57;7.60;;;3.58;;
20170;SDS011;10245;51.344;6.620;2023-06-26T10:11:22;9.85;;;3.65;;
20170;SDS011;10245;51.344;6.620;2023-06-26T10:13:49;9.32;;;3.60;;
20170;SDS011;10245;51.344;6.620;2023-06-26T10:16:23;8.43;;;3.22;;
20170;SDS011;10245;51.344;6.620;2023-06-26T10:18:50;9.15;;;3.03;;
20170;SDS011;10245;51.344;6.620;2023-06-26T10:21:18;6.80;;;3.00;;
20170;SDS011;10245;51.344;6.620;2023-06-26T10:23:45;6.90;;;3.22;;
20170;SDS011;10245;51.344;6.620;2023-06-26T10:26:11;6.50;;;3.20;;
20170;SDS011;10245;51.344;6.620;2023-06-26T10:28:35;9.57;;;3.28;;
20170;SDS011;10245;51.344;6.620;2023-06-26T10:31:00;9.25;;;3.10;;
20170;SDS011;10245;51.344;6.620;2023-06-26T10:33:25;8.15;;;3.13;;
20170;SDS011;10245;51.344;6.620;2023-06-26T10:35:49;10.82;;;3.10;;
20170;SDS011;10245;51.344;6.620;2023-06-26T10:38:12;5.50;;;3.08;;
20170;SDS011;10245;51.344;6.620;2023-06-26T10:40:40;6.90;;;2.80;;
20170;SDS011;10245;51.344;6.620;2023-06-26T10:43:06;3.10;;;2.35;;
20170;SDS011;10245;51.344;6.620;2023-06-26T10:45:31;5.85;;;2.40;;
20170;SDS011;10245;51.344;6.620;2023-06-26T10:47:56;4.82;;;2.70;;
20170;SDS011;10245;51.344;6.620;2023-06-26T10:50:22;6.13;;;2.22;;
20170;SDS011;10245;51.344;6.620;2023-06-26T10:55:43;5.13;;;2.53;;
20170;SDS011;10245;51.344;6.620;2023-06-26T10:58:28;4.13;;;2.25;;
20170;SDS011;10245;51.344;6.620;2023-06-26T11:01:13;6.28;;;2.40;;
20170;SDS011;10245;51.344;6.620;2023-06-26T11:03:44;5.25;;;1.92;;
20170;SDS011;10245;51.344;6.620;2023-06-26T11:06:11;3.05;;;2.10;;
20170;SDS011;10245;51.344;6.620;2023-06-26T11:08:43;7.30;;;1.90;;
20170;SDS011;10245;51.344;6.620;2023-06-26T11:11:07;8.07;;;2.15;;
20170;SDS011;10245;51.344;6.620;2023-06-26T11:13:32;4.90;;;2.03;;
20170;SDS011;10245;51.344;6.620;2023-06-26T11:15:58;4.60;;;1.80;;
20170;SDS011;10245;51.344;6.620;2023-06-26T11:18:21;3.25;;;1.80;;
20170;SDS011;10245;51.344;6.620;2023-06-26T11:20:46;8.10;;;2.10;;
20170;SDS011;10245;51.344;6.620;2023-06-26T11:23:10;3.83;;;1.80;;
20170;SDS011;10245;51.344;6.620;2023-06-26T11:25:34;8.32;;;1.92;;
20170;SDS011;10245;51.344;6.620;2023-06-26T11:27:58;5.78;;;1.80;;
20170;SDS011;10245;51.344;6.620;2023-06-26T11:30:26;6.07;;;1.85;;
20170;SDS011;10245;51.344;6.620;2023-06-26T11:32:49;5.50;;;2.00;;
20170;SDS011;10245;51.344;6.620;2023-06-26T11:35:13;3.40;;;1.75;;
20170;SDS011;10245;51.344;6.620;2023-06-26T11:37:51;4.13;;;1.70;;
20170;SDS011;10245;51.344;6.620;2023-06-26T11:40:18;6.53;;;1.88;;
20170;SDS011;10245;51.344;6.620;2023-06-26T11:42:42;6.57;;;1.90;;
20170;SDS011;10245;51.344;6.620;2023-06-26T11:45:07;4.82;;;1.60;;
20170;SDS011;10245;51.344;6.620;2023-06-26T11:47:33;3.63;;;1.70;;
20170;SDS011;10245;51.344;6.620;2023-06-26T11:49:56;6.45;;;1.65;;
20170;SDS011;10245;51.344;6.620;2023-06-26T11:52:19;7.28;;;1.60;;
20170;SDS011;10245;51.344;6.620;2023-06-26T11:54:43;5.95;;;1.42;;
20170;SDS011;10245;51.344;6.620;2023-06-26T11:57:07;3.20;;;1.38;;
20170;SDS011;10245;51.344;6.620;2023-06-26T11:59:34;3.85;;;1.30;;
20170;SDS011;10245;51.344;6.620;2023-06-26T12:02:00;6.45;;;1.33;;
20170;SDS011;10245;51.344;6.620;2023-06-26T12:04:30;3.17;;;1.33;;
20170;SDS011;10245;51.344;6.620;2023-06-26T12:06:54;6.97;;;1.58;;
20170;SDS011;10245;51.344;6.620;2023-06-26T12:09:19;7.20;;;1.10;;
20170;SDS011;10245;51.344;6.620;2023-06-26T12:11:44;3.33;;;1.52;;
20170;SDS011;10245;51.344;6.620;2023-06-26T12:14:10;4.90;;;1.20;;
20170;SDS011;10245;51.344;6.620;2023-06-26T12:16:36;6.85;;;1.40;;
20170;SDS011;10245;51.344;6.620;2023-06-26T12:19:02;5.45;;;1.60;;
20170;SDS011;10245;51.344;6.620;2023-06-26T12:21:29;4.60;;;1.50;;
20170;SDS011;10245;51.344;6.620;2023-06-26T12:24:09;7.47;;;1.33;;
20170;SDS011;10245;51.344;6.620;2023-06-26T12:26:35;6.97;;;1.15;;
20170;SDS011;10245;51.344;6.620;2023-06-26T12:29:01;2.70;;;1.42;;
20170;SDS011;10245;51.344;6.620;2023-06-26T12:31:25;3.40;;;1.42;;
20170;SDS011;10245;51.344;6.620;2023-06-26T12:33:48;2.95;;;1.27;;
20170;SDS011;10245;51.344;6.620;2023-06-26T12:36:14;3.78;;;1.50;;
20170;SDS011;10245;51.344;6.620;2023-06-26T12:38:38;6.82;;;1.60;;
20170;SDS011;10245;51.344;6.620;2023-06-26T12:41:02;6.57;;;1.70;;
20170;SDS011;10245;51.344;6.620;2023-06-26T12:43:25;3.85;;;1.30;;
20170;SDS011;10245;51.344;6.620;2023-06-26T12:45:53;3.85;;;1.13;;
20170;SDS011;10245;51.344;6.620;2023-06-26T12:48:17;5.85;;;1.30;;
20170;SDS011;10245;51.344;6.620;2023-06-26T12:50:43;3.42;;;1.30;;
20170;SDS011;10245;51.344;6.620;2023-06-26T12:53:07;5.75;;;1.30;;
20170;SDS011;10245;51.344;6.620;2023-06-26T12:55:31;4.10;;;1.17;;
20170;SDS011;10245;51.344;6.620;2023-06-26T12:57:55;5.88;;;1.63;;
20170;SDS011;10245;51.344;6.620;2023-06-26T13:00:18;6.22;;;1.33;;
20170;SDS011;10245;51.344;6.620;2023-06-26T13:02:42;4.22;;;1.38;;
20170;SDS011;10245;51.344;6.620;2023-06-26T13:05:06;4.40;;;1.50;;
20170;SDS011;10245;51.344;6.620;2023-06-26T13:07:30;5.38;;;1.38;;
20170;SDS011;10245;51.344;6.620;2023-06-26T13:09:53;3.70;;;1.25;;
20170;SDS011;10245;51.344;6.620;2023-06-26T13:12:18;8.63;;;1.50;;
20170;SDS011;10245;51.344;6.620;2023-06-26T13:14:41;8.05;;;1.42;;
20170;SDS011;10245;51.344;6.620;2023-06-26T13:17:05;5.43;;;1.70;;
20170;SDS011;10245;51.344;6.620;2023-06-26T13:19:30;6.35;;;1.48;;
20170;SDS011;10245;51.344;6.620;2023-06-26T13:21:53;3.47;;;1.48;;
20170;SDS011;10245;51.344;6.620;2023-06-26T13:24:17;4.82;;;1.20;;
20170;SDS011;10245;51.344;6.620;2023-06-26T13:26:40;3.05;;;1.50;;
20170;SDS011;10245;51.344;6.620;2023-06-26T13:29:05;5.10;;;1.58;;
20170;SDS011;10245;51.344;6.620;2023-06-26T13:31:28;3.35;;;1.30;;
20170;SDS011;10245;51.344;6.620;2023-06-26T13:33:52;5.72;;;1.50;;
20170;SDS011;10245;51.344;6.620;2023-06-26T13:36:16;1.88;;;1.45;;
20170;SDS011;10245;51.344;6.620;2023-06-26T13:38:39;4.22;;;1.63;;
20170;SDS011;10245;51.344;6.620;2023-06-26T13:41:02;3.38;;;1.13;;
20170;SDS011;10245;51.344;6.620;2023-06-26T13:43:26;3.90;;;1.50;;
20170;SDS011;10245;51.344;6.620;2023-06-26T13:45:53;2.83;;;1.20;;
20170;SDS011;10245;51.344;6.620;2023-06-26T13:48:17;2.92;;;1.50;;
20170;SDS011;10245;51.344;6.620;2023-06-26T13:50:41;1.48;;;1.20;;
20170;SDS011;10245;51.344;6.620;2023-06-26T13:53:15;4.10;;;1.60;;
20170;SDS011;10245;51.344;6.620;2023-06-26T13:55:40;4.00;;;1.60;;
20170;SDS011;10245;51.344;6.620;2023-06-26T13:58:04;4.50;;;1.65;;
20170;SDS011;10245;51.344;6.620;2023-06-26T14:00:27;2.53;;;1.30;;
20170;SDS011;10245;51.344;6.620;2023-06-26T14:02:52;2.75;;;1.42;;
20170;SDS011;10245;51.344;6.620;2023-06-26T14:05:17;3.78;;;1.55;;
20170;SDS011;10245;51.344;6.620;2023-06-26T14:07:54;2.92;;;1.20;;
20170;SDS011;10245;51.344;6.620;2023-06-26T14:10:20;4.28;;;1.67;;
20170;SDS011;10245;51.344;6.620;2023-06-26T14:12:43;3.90;;;1.60;;
20170;SDS011;10245;51.344;6.620;2023-06-26T14:15:08;2.33;;;1.40;;
20170;SDS011;10245;51.344;6.620;2023-06-26T14:17:32;3.55;;;1.30;;
20170;SDS011;10245;51.344;6.620;2023-06-26T14:19:57;3.13;;;1.42;;
20170;SDS011;10245;51.344;6.620;2023-06-26T14:22:21;4.22;;;1.50;;
20170;SDS011;10245;51.344;6.620;2023-06-26T14:24:44;5.05;;;1.30;;
20170;SDS011;10245;51.344;6.620;2023-06-26T14:27:07;2.13;;;1.30;;
20170;SDS011;10245;51.344;6.620;2023-06-26T14:29:30;4.25;;;2.03;;
20170;SDS011;10245;51.344;6.620;2023-06-26T14:31:55;3.35;;;1.38;;